sensor_id;sensor_type;location;lat;lon;timestamp;noise_LAeq;noise_LA_min;noise_LA_max;noise_LA01;noise_LA95
17594;Laerm;8916;47.086;15.920;2024-03-17T00:00:07;49.17;48.02;50.40;;
17594;Laerm;8916;47.086;15.920;2024-03-17T00:02:41;49.15;48.08;50.46;;
17594;Laerm;8916;47.086;15.920;2024-03-17T00:05:10;49.17;47.98;50.43;;
17594;Laerm;8916;47.086;15.920;2024-03-17T00:07:38;49.16;48.07;50.37;;
17594;Laerm;8916;47.086;15.920;2024-03-17T00:10:07;49.16;48.02;50.16;;
17594;Laerm;8916;47.086;15.920;2024-03-17T00:12:35;49.15;48.05;50.34;;
17594;Laerm;8916;47.086;15.920;2024-03-17T00:15:04;49.15;48.05;50.19;;
17594;Laerm;8916;47.086;15.920;2024-03-17T00:17:34;49.15;47.93;50.20;;
17594;Laerm;8916;47.086;15.920;2024-03-17T00:20:01;49.15;48.10;50.26;;
17594;Laerm;8916;47.086;15.920;2024-03-17T00:22:32;49.15;48.07;50.45;;
17594;Laerm;8916;47.086;15.920;2024-03-17T00:25:05;49.15;48.02;50.25;;
17594;Laerm;8916;47.086;15.920;2024-03-17T00:27:34;49.15;48.00;50.39;;
17594;Laerm;8916;47.086;15.920;2024-03-17T00:30:05;49.16;47.90;50.40;;
17594;Laerm;8916;47.086;15.920;2024-03-17T00:32:37;49.16;47.93;50.22;;
17594;Laerm;8916;47.086;15.920;2024-03-17T00:35:06;49.15;48.07;50.21;;
17594;Laerm;8916;47.086;15.920;2024-03-17T00:37:36;49.15;48.05;50.42;;
17594;Laerm;8916;47.086;15.920;2024-03-17T00:40:07;49.15;48.07;50.49;;
17594;Laerm;8916;47.086;15.920;2024-03-17T00:42:38;49.15;48.13;50.54;;
17594;Laerm;8916;47.086;15.920;2024-03-17T00:45:06;49.16;48.08;50.48;;
17594;Laerm;8916;47.086;15.920;2024-03-17T00:47:34;49.17;48.13;50.28;;
17594;Laerm;8916;47.086;15.920;2024-03-17T00:50:02;49.16;48.02;50.28;;
17594;Laerm;8916;47.086;15.920;2024-03-17T00:52:31;49.16;48.16;50.34;;
17594;Laerm;8916;47.086;15.920;2024-03-17T00:55:01;49.17;47.90;50.41;;
17594;Laerm;8916;47.086;15.920;2024-03-17T00:57:28;49.17;48.07;50.38;;
17594;Laerm;8916;47.086;15.920;2024-03-17T00:59:57;49.16;48.08;50.28;;
17594;Laerm;8916;47.086;15.920;2024-03-17T01:02:25;49.17;47.93;50.28;;
17594;Laerm;8916;47.086;15.920;2024-03-17T01:04:53;49.16;47.95;50.42;;
17594;Laerm;8916;47.086;15.920;2024-03-17T01:07:21;49.16;47.81;50.26;;
17594;Laerm;8916;47.086;15.920;2024-03-17T01:09:49;49.17;48.03;50.24;;
17594;Laerm;8916;47.086;15.920;2024-03-17T01:12:18;49.17;48.18;50.40;;
17594;Laerm;8916;47.086;15.920;2024-03-17T01:14:47;49.17;48.00;50.25;;
17594;Laerm;8916;47.086;15.920;2024-03-17T01:17:15;49.17;48.08;50.35;;
17594;Laerm;8916;47.086;15.920;2024-03-17T01:19:46;49.17;48.15;50.34;;
17594;Laerm;8916;47.086;15.920;2024-03-17T01:22:13;49.18;48.07;50.59;;
17594;Laerm;8916;47.086;15.920;2024-03-17T01:24:42;49.18;48.18;50.46;;
17594;Laerm;8916;47.086;15.920;2024-03-17T01:27:12;49.18;48.08;50.53;;
17594;Laerm;8916;47.086;15.920;2024-03-17T01:29:44;49.19;48.12;50.29;;
17594;Laerm;8916;47.086;15.920;2024-03-17T01:32:11;49.19;48.13;50.28;;
17594;Laerm;8916;47.086;15.920;2024-03-17T01:34:39;49.18;48.20;50.53;;
17594;Laerm;8916;47.086;15.920;2024-03-17T01:37:07;49.19;48.15;50.25;;
17594;Laerm;8916;47.086;15.920;2024-03-17T01:39:36;49.19;48.07;50.28;;
17594;Laerm;8916;47.086;15.920;2024-03-17T01:42:03;49.20;48.16;50.45;;
17594;Laerm;8916;47.086;15.920;2024-03-17T01:44:31;49.19;47.93;50.19;;
17594;Laerm;8916;47.086;15.920;2024-03-17T01:47:00;49.19;48.20;50.45;;
17594;Laerm;8916;47.086;15.920;2024-03-17T01:49:30;49.21;48.03;50.26;;
17594;Laerm;8916;47.086;15.920;2024-03-17T01:51:57;49.21;48.15;50.34;;
17594;Laerm;8916;47.086;15.920;2024-03-17T01:54:26;49.20;48.07;50.48;;
17594;Laerm;8916;47.086;15.920;2024-03-17T01:56:53;49.20;48.10;50.54;;
17594;Laerm;8916;47.086;15.920;2024-03-17T01:59:22;49.22;48.18;50.53;;
17594;Laerm;8916;47.086;15.920;2024-03-17T02:01:49;49.21;48.26;50.56;;
17594;Laerm;8916;47.086;15.920;2024-03-17T02:04:19;49.21;48.20;51.11;;
17594;Laerm;8916;47.086;15.920;2024-03-17T02:06:46;49.21;48.05;50.52;;
17594;Laerm;8916;47.086;15.920;2024-03-17T02:09:14;49.22;48.05;50.44;;
17594;Laerm;8916;47.086;15.920;2024-03-17T02:11:41;49.22;48.13;50.30;;
17594;Laerm;8916;47.086;15.920;2024-03-17T02:14:10;49.23;48.05;50.38;;
17594;Laerm;8916;47.086;15.920;2024-03-17T02:16:40;49.23;48.23;50.30;;
17594;Laerm;8916;47.086;15.920;2024-03-17T02:19:09;49.22;48.12;50.40;;
17594;Laerm;8916;47.086;15.920;2024-03-17T02:21:37;49.22;48.12;50.40;;
17594;Laerm;8916;47.086;15.920;2024-03-17T02:24:08;49.22;48.08;50.35;;
17594;Laerm;8916;47.086;15.920;2024-03-17T02:26:35;49.22;48.08;50.27;;
17594;Laerm;8916;47.086;15.920;2024-03-17T02:29:05;49.22;47.98;50.32;;
17594;Laerm;8916;47.086;15.920;2024-03-17T02:31:32;49.22;48.07;50.29;;
17594;Laerm;8916;47.086;15.920;2024-03-17T02:34:00;49.23;48.16;50.41;;
17594;Laerm;8916;47.086;15.920;2024-03-17T02:36:27;49.23;48.12;50.48;;
17594;Laerm;8916;47.086;15.920;2024-03-17T02:38:56;49.22;48.03;50.26;;
17594;Laerm;8916;47.086;15.920;2024-03-17T02:41:44;49.23;48.12;50.30;;
17594;Laerm;8916;47.086;15.920;2024-03-17T02:44:12;49.23;48.12;50.38;;
17594;Laerm;8916;47.086;15.920;2024-03-17T02:46:41;49.24;48.07;50.38;;
17594;Laerm;8916;47.086;15.920;2024-03-17T02:49:09;49.24;48.03;50.40;;
17594;Laerm;8916;47.086;15.920;2024-03-17T02:51:40;49.23;48.12;50.51;;
17594;Laerm;8916;47.086;15.920;2024-03-17T02:54:09;49.23;47.93;50.54;;
17594;Laerm;8916;47.086;15.920;2024-03-17T02:56:37;49.23;48.10;50.41;;
17594;Laerm;8916;47.086;15.920;2024-03-17T02:59:06;49.24;48.25;50.33;;
17594;Laerm;8916;47.086;15.920;2024-03-17T03:01:35;49.23;48.18;50.27;;
17594;Laerm;8916;47.086;15.920;2024-03-17T03:04:03;49.24;48.13;50.41;;
17594;Laerm;8916;47.086;15.920;2024-03-17T03:06:32;49.24;48.28;50.43;;
17594;Laerm;8916;47.086;15.920;2024-03-17T03:09:01;49.24;48.08;50.50;;
17594;Laerm;8916;47.086;15.920;2024-03-17T03:11:32;49.25;48.07;50.47;;
17594;Laerm;8916;47.086;15.920;2024-03-17T03:14:00;49.26;48.13;50.68;;
17594;Laerm;8916;47.086;15.920;2024-03-17T03:16:30;49.24;47.91;50.24;;
17594;Laerm;8916;47.086;15.920;2024-03-17T03:18:59;49.24;48.21;50.59;;
17594;Laerm;8916;47.086;15.920;2024-03-17T03:21:27;49.25;48.16;50.35;;
17594;Laerm;8916;47.086;15.920;2024-03-17T03:23:55;49.23;48.29;50.41;;
17594;Laerm;8916;47.086;15.920;2024-03-17T03:26:24;49.25;48.21;50.38;;
17594;Laerm;8916;47.086;15.920;2024-03-17T03:28:52;49.25;48.08;50.46;;
17594;Laerm;8916;47.086;15.920;2024-03-17T03:31:21;49.24;48.15;50.31;;
17594;Laerm;8916;47.086;15.920;2024-03-17T03:33:50;49.26;48.02;50.66;;
17594;Laerm;8916;47.086;15.920;2024-03-17T03:36:19;49.25;48.12;50.31;;
17594;Laerm;8916;47.086;15.920;2024-03-17T03:38:47;49.24;48.16;50.42;;
17594;Laerm;8916;47.086;15.920;2024-03-17T03:41:16;49.24;48.26;50.20;;
17594;Laerm;8916;47.086;15.920;2024-03-17T03:43:44;49.24;48.00;50.43;;
17594;Laerm;8916;47.086;15.920;2024-03-17T03:46:13;49.24;48.12;50.51;;
17594;Laerm;8916;47.086;15.920;2024-03-17T03:48:42;49.25;48.16;50.39;;
17594;Laerm;8916;47.086;15.920;2024-03-17T03:51:11;49.26;48.29;50.58;;
17594;Laerm;8916;47.086;15.920;2024-03-17T03:53:40;49.26;48.10;50.56;;
17594;Laerm;8916;47.086;15.920;2024-03-17T03:56:09;49.25;48.05;50.36;;
17594;Laerm;8916;47.086;15.920;2024-03-17T03:58:38;49.26;48.12;50.45;;
17594;Laerm;8916;47.086;15.920;2024-03-17T04:01:08;49.26;47.98;50.64;;
17594;Laerm;8916;47.086;15.920;2024-03-17T04:03:38;49.26;48.10;50.31;;
17594;Laerm;8916;47.086;15.920;2024-03-17T04:06:08;49.26;48.20;50.36;;
17594;Laerm;8916;47.086;15.920;2024-03-17T04:08:39;49.25;48.21;50.68;;
17594;Laerm;8916;47.086;15.920;2024-03-17T04:11:07;49.26;48.25;50.59;;
17594;Laerm;8916;47.086;15.920;2024-03-17T04:13:36;49.27;48.16;50.51;;
17594;Laerm;8916;47.086;15.920;2024-03-17T04:16:06;49.26;48.08;50.26;;
17594;Laerm;8916;47.086;15.920;2024-03-17T04:18:35;49.26;48.18;50.52;;
17594;Laerm;8916;47.086;15.920;2024-03-17T04:21:05;49.27;48.21;50.53;;
17594;Laerm;8916;47.086;15.920;2024-03-17T04:23:35;49.27;48.13;50.31;;
17594;Laerm;8916;47.086;15.920;2024-03-17T04:26:05;49.28;48.07;50.25;;
17594;Laerm;8916;47.086;15.920;2024-03-17T04:28:36;49.27;48.16;50.30;;
17594;Laerm;8916;47.086;15.920;2024-03-17T04:31:05;49.27;48.28;50.26;;
17594;Laerm;8916;47.086;15.920;2024-03-17T04:33:34;49.27;48.26;50.46;;
17594;Laerm;8916;47.086;15.920;2024-03-17T04:36:03;49.26;48.15;50.29;;
17594;Laerm;8916;47.086;15.920;2024-03-17T04:38:31;49.26;48.21;50.39;;
17594;Laerm;8916;47.086;15.920;2024-03-17T04:41:00;49.26;48.18;50.34;;
17594;Laerm;8916;47.086;15.920;2024-03-17T04:43:33;49.27;47.95;50.40;;
17594;Laerm;8916;47.086;15.920;2024-03-17T04:46:05;49.27;48.08;50.52;;
17594;Laerm;8916;47.086;15.920;2024-03-17T04:48:36;49.27;48.02;50.47;;
17594;Laerm;8916;47.086;15.920;2024-03-17T04:51:05;49.28;48.23;50.38;;
17594;Laerm;8916;47.086;15.920;2024-03-17T04:53:33;49.27;48.13;50.28;;
17594;Laerm;8916;47.086;15.920;2024-03-17T04:56:02;49.27;48.20;50.34;;
17594;Laerm;8916;47.086;15.920;2024-03-17T04:58:33;49.28;48.12;50.29;;
17594;Laerm;8916;47.086;15.920;2024-03-17T05:01:06;49.27;48.15;50.34;;
17594;Laerm;8916;47.086;15.920;2024-03-17T05:03:34;49.26;48.08;50.35;;
17594;Laerm;8916;47.086;15.920;2024-03-17T05:06:04;49.27;48.25;50.45;;
17594;Laerm;8916;47.086;15.920;2024-03-17T05:08:33;49.25;48.25;50.56;;
17594;Laerm;8916;47.086;15.920;2024-03-17T05:11:04;49.26;48.21;50.25;;
17594;Laerm;8916;47.086;15.920;2024-03-17T05:13:36;49.26;48.18;50.35;;
17594;Laerm;8916;47.086;15.920;2024-03-17T05:16:05;49.26;48.25;50.27;;
17594;Laerm;8916;47.086;15.920;2024-03-17T05:18:34;49.26;48.08;50.23;;
17594;Laerm;8916;47.086;15.920;2024-03-17T05:21:03;49.28;48.16;50.47;;
17594;Laerm;8916;47.086;15.920;2024-03-17T05:23:34;49.27;48.19;50.23;;
17594;Laerm;8916;47.086;15.920;2024-03-17T05:26:03;49.27;48.18;50.35;;
17594;Laerm;8916;47.086;15.920;2024-03-17T05:28:34;49.27;48.23;50.42;;
17594;Laerm;8916;47.086;15.920;2024-03-17T05:31:02;49.27;48.13;50.47;;
17594;Laerm;8916;47.086;15.920;2024-03-17T05:33:31;49.28;48.23;50.34;;
17594;Laerm;8916;47.086;15.920;2024-03-17T05:35:59;49.27;48.29;50.53;;
17594;Laerm;8916;47.086;15.920;2024-03-17T05:38:30;49.27;47.95;50.24;;
17594;Laerm;8916;47.086;15.920;2024-03-17T05:40:59;49.26;48.25;50.42;;
17594;Laerm;8916;47.086;15.920;2024-03-17T05:43:29;49.27;48.26;50.80;;
17594;Laerm;8916;47.086;15.920;2024-03-17T05:46:00;49.26;48.21;50.38;;
17594;Laerm;8916;47.086;15.920;2024-03-17T05:48:29;49.25;48.29;50.34;;
17594;Laerm;8916;47.086;15.920;2024-03-17T05:50:57;49.26;48.18;50.35;;
17594;Laerm;8916;47.086;15.920;2024-03-17T05:53:29;49.25;48.18;50.30;;
17594;Laerm;8916;47.086;15.920;2024-03-17T05:55:59;49.25;48.21;50.37;;
17594;Laerm;8916;47.086;15.920;2024-03-17T05:58:27;49.25;48.15;50.37;;
17594;Laerm;8916;47.086;15.920;2024-03-17T06:00:55;49.24;48.10;50.78;;
17594;Laerm;8916;47.086;15.920;2024-03-17T06:03:26;49.24;48.07;50.35;;
17594;Laerm;8916;47.086;15.920;2024-03-17T06:05:54;49.23;47.98;50.28;;
17594;Laerm;8916;47.086;15.920;2024-03-17T06:08:22;49.24;48.13;50.38;;
17594;Laerm;8916;47.086;15.920;2024-03-17T06:10:51;49.23;48.16;50.43;;
17594;Laerm;8916;47.086;15.920;2024-03-17T06:13:19;49.20;48.02;50.49;;
17594;Laerm;8916;47.086;15.920;2024-03-17T06:15:47;49.14;48.12;50.44;;
17594;Laerm;8916;47.086;15.920;2024-03-17T06:18:16;49.13;47.96;50.28;;
17594;Laerm;8916;47.086;15.920;2024-03-17T06:20:47;49.13;48.12;50.22;;
17594;Laerm;8916;47.086;15.920;2024-03-17T06:23:16;49.11;47.96;50.18;;
17594;Laerm;8916;47.086;15.920;2024-03-17T06:25:46;49.09;48.02;50.37;;
17594;Laerm;8916;47.086;15.920;2024-03-17T06:28:16;49.07;48.10;50.31;;
17594;Laerm;8916;47.086;15.920;2024-03-17T06:30:46;49.05;47.79;50.04;;
17594;Laerm;8916;47.086;15.920;2024-03-17T06:33:17;49.05;47.90;50.32;;
17594;Laerm;8916;47.086;15.920;2024-03-17T06:35:47;49.04;47.86;50.04;;
17594;Laerm;8916;47.086;15.920;2024-03-17T06:38:16;49.03;47.90;50.22;;
17594;Laerm;8916;47.086;15.920;2024-03-17T06:40:49;49.02;47.96;50.13;;
17594;Laerm;8916;47.086;15.920;2024-03-17T06:43:18;49.01;47.70;50.19;;
17594;Laerm;8916;47.086;15.920;2024-03-17T06:45:56;48.99;47.90;50.24;;
17594;Laerm;8916;47.086;15.920;2024-03-17T06:48:26;49.00;47.90;50.26;;
17594;Laerm;8916;47.086;15.920;2024-03-17T06:50:56;48.97;47.91;50.13;;
17594;Laerm;8916;47.086;15.920;2024-03-17T06:53:24;48.99;47.88;50.01;;
17594;Laerm;8916;47.086;15.920;2024-03-17T06:55:53;48.97;47.59;50.19;;
17594;Laerm;8916;47.086;15.920;2024-03-17T06:58:22;48.98;47.93;50.23;;
17594;Laerm;8916;47.086;15.920;2024-03-17T07:00:54;48.96;47.77;50.12;;
17594;Laerm;8916;47.086;15.920;2024-03-17T07:03:24;48.96;47.91;50.25;;
17594;Laerm;8916;47.086;15.920;2024-03-17T07:05:56;48.97;47.77;50.29;;
17594;Laerm;8916;47.086;15.920;2024-03-17T07:08:25;48.97;47.87;50.15;;
17594;Laerm;8916;47.086;15.920;2024-03-17T07:10:58;48.95;47.95;50.35;;
17594;Laerm;8916;47.086;15.920;2024-03-17T07:13:29;48.92;47.79;50.04;;
17594;Laerm;8916;47.086;15.920;2024-03-17T07:15:58;48.91;47.93;50.18;;
17594;Laerm;8916;47.086;15.920;2024-03-17T07:18:27;48.92;47.59;49.96;;
17594;Laerm;8916;47.086;15.920;2024-03-17T07:20:59;48.90;47.76;50.12;;
17594;Laerm;8916;47.086;15.920;2024-03-17T07:23:27;48.89;47.76;50.19;;
17594;Laerm;8916;47.086;15.920;2024-03-17T07:25:57;48.88;47.81;50.03;;
17594;Laerm;8916;47.086;15.920;2024-03-17T07:28:26;48.87;47.52;50.09;;
17594;Laerm;8916;47.086;15.920;2024-03-17T07:30:55;48.82;47.59;50.00;;
17594;Laerm;8916;47.086;15.920;2024-03-17T07:33:24;48.79;47.72;50.30;;
17594;Laerm;8916;47.086;15.920;2024-03-17T07:35:55;48.79;47.70;51.53;;
17594;Laerm;8916;47.086;15.920;2024-03-17T07:38:29;48.79;47.77;50.01;;
17594;Laerm;8916;47.086;15.920;2024-03-17T07:41:00;48.77;47.59;49.92;;
17594;Laerm;8916;47.086;15.920;2024-03-17T07:43:31;48.75;47.59;50.01;;
17594;Laerm;8916;47.086;15.920;2024-03-17T07:46:00;48.76;47.74;50.34;;
17594;Laerm;8916;47.086;15.920;2024-03-17T07:48:30;48.75;47.76;50.12;;
17594;Laerm;8916;47.086;15.920;2024-03-17T07:51:01;48.74;47.55;49.92;;
17594;Laerm;8916;47.086;15.920;2024-03-17T07:53:33;48.75;47.74;49.84;;
17594;Laerm;8916;47.086;15.920;2024-03-17T07:56:03;48.74;47.65;50.04;;
17594;Laerm;8916;47.086;15.920;2024-03-17T07:58:33;48.73;47.61;49.80;;
17594;Laerm;8916;47.086;15.920;2024-03-17T08:01:04;48.72;47.63;50.08;;
17594;Laerm;8916;47.086;15.920;2024-03-17T08:03:34;48.71;47.68;49.98;;
17594;Laerm;8916;47.086;15.920;2024-03-17T08:06:05;48.73;47.52;49.91;;
17594;Laerm;8916;47.086;15.920;2024-03-17T08:08:35;48.70;47.48;49.78;;
17594;Laerm;8916;47.086;15.920;2024-03-17T08:11:04;48.72;47.63;49.85;;
17594;Laerm;8916;47.086;15.920;2024-03-17T08:13:32;48.71;47.48;49.90;;
17594;Laerm;8916;47.086;15.920;2024-03-17T08:16:03;48.72;47.57;49.94;;
17594;Laerm;8916;47.086;15.920;2024-03-17T08:18:33;48.70;47.50;49.83;;
17594;Laerm;8916;47.086;15.920;2024-03-17T08:21:03;48.67;47.55;49.88;;
17594;Laerm;8916;47.086;15.920;2024-03-17T08:23:35;48.69;47.65;50.16;;
17594;Laerm;8916;47.086;15.920;2024-03-17T08:26:08;48.69;47.59;50.03;;
17594;Laerm;8916;47.086;15.920;2024-03-17T08:28:37;48.64;47.46;50.08;;
17594;Laerm;8916;47.086;15.920;2024-03-17T08:31:05;48.63;47.38;49.87;;
17594;Laerm;8916;47.086;15.920;2024-03-17T08:33:34;48.64;47.46;49.91;;
17594;Laerm;8916;47.086;15.920;2024-03-17T08:36:04;48.64;47.55;49.89;;
17594;Laerm;8916;47.086;15.920;2024-03-17T08:38:36;48.66;47.48;50.06;;
17594;Laerm;8916;47.086;15.920;2024-03-17T08:41:06;48.64;47.52;50.31;;
17594;Laerm;8916;47.086;15.920;2024-03-17T08:43:37;48.64;47.61;50.08;;
17594;Laerm;8916;47.086;15.920;2024-03-17T08:46:07;48.68;47.68;49.73;;
17594;Laerm;8916;47.086;15.920;2024-03-17T08:48:37;48.70;47.59;50.19;;
17594;Laerm;8916;47.086;15.920;2024-03-17T08:51:07;48.67;47.57;50.07;;
17594;Laerm;8916;47.086;15.920;2024-03-17T08:53:37;48.65;47.63;49.73;;
17594;Laerm;8916;47.086;15.920;2024-03-17T08:56:07;48.66;47.61;49.94;;
17594;Laerm;8916;47.086;15.920;2024-03-17T08:58:35;48.68;47.46;49.98;;
17594;Laerm;8916;47.086;15.920;2024-03-17T09:01:05;48.68;47.48;50.03;;
17594;Laerm;8916;47.086;15.920;2024-03-17T09:03:34;48.64;47.52;49.81;;
17594;Laerm;8916;47.086;15.920;2024-03-17T09:06:03;48.61;47.40;49.93;;
17594;Laerm;8916;47.086;15.920;2024-03-17T09:08:32;48.61;47.34;50.02;;
17594;Laerm;8916;47.086;15.920;2024-03-17T09:11:02;48.61;47.46;49.94;;
17594;Laerm;8916;47.086;15.920;2024-03-17T09:13:31;48.62;47.50;49.78;;
17594;Laerm;8916;47.086;15.920;2024-03-17T09:16:00;48.61;47.40;49.92;;
17594;Laerm;8916;47.086;15.920;2024-03-17T09:18:28;48.60;47.36;49.88;;
17594;Laerm;8916;47.086;15.920;2024-03-17T09:20:58;48.55;47.50;49.80;;
17594;Laerm;8916;47.086;15.920;2024-03-17T09:23:28;48.55;47.32;50.02;;
17594;Laerm;8916;47.086;15.920;2024-03-17T09:25:57;48.59;47.50;49.89;;
17594;Laerm;8916;47.086;15.920;2024-03-17T09:28:28;48.59;47.30;49.89;;
17594;Laerm;8916;47.086;15.920;2024-03-17T09:30:57;48.61;47.55;49.81;;
17594;Laerm;8916;47.086;15.920;2024-03-17T09:33:27;48.62;47.59;49.87;;
17594;Laerm;8916;47.086;15.920;2024-03-17T09:35:57;48.64;47.59;49.97;;
17594;Laerm;8916;47.086;15.920;2024-03-17T09:38:26;48.62;47.52;49.79;;
17594;Laerm;8916;47.086;15.920;2024-03-17T09:40:55;48.64;47.42;49.90;;
17594;Laerm;8916;47.086;15.920;2024-03-17T09:43:29;48.76;47.60;49.97;;
17594;Laerm;8916;47.086;15.920;2024-03-17T09:46:02;48.75;47.50;49.97;;
17594;Laerm;8916;47.086;15.920;2024-03-17T09:48:31;48.65;47.54;50.07;;
17594;Laerm;8916;47.086;15.920;2024-03-17T09:51:01;48.59;47.44;49.83;;
17594;Laerm;8916;47.086;15.920;2024-03-17T09:53:31;48.62;47.40;54.61;;
17594;Laerm;8916;47.086;15.920;2024-03-17T09:56:08;48.61;47.48;49.94;;
17594;Laerm;8916;47.086;15.920;2024-03-17T09:58:38;48.59;47.55;49.84;;
17594;Laerm;8916;47.086;15.920;2024-03-17T10:01:07;48.60;47.52;49.83;;
17594;Laerm;8916;47.086;15.920;2024-03-17T10:03:46;48.59;47.36;49.95;;
17594;Laerm;8916;47.086;15.920;2024-03-17T10:06:20;48.59;47.36;50.01;;
17594;Laerm;8916;47.086;15.920;2024-03-17T10:08:50;48.62;47.34;49.88;;
17594;Laerm;8916;47.086;15.920;2024-03-17T10:11:22;48.64;47.55;50.12;;
17594;Laerm;8916;47.086;15.920;2024-03-17T10:14:01;48.63;47.57;49.81;;
17594;Laerm;8916;47.086;15.920;2024-03-17T10:16:32;48.61;47.50;49.79;;
17594;Laerm;8916;47.086;15.920;2024-03-17T10:19:09;48.62;47.16;49.90;;
17594;Laerm;8916;47.086;15.920;2024-03-17T10:21:39;48.60;47.40;49.98;;
17594;Laerm;8916;47.086;15.920;2024-03-17T10:24:10;48.60;47.28;49.92;;
17594;Laerm;8916;47.086;15.920;2024-03-17T10:26:42;48.62;47.57;49.83;;
17594;Laerm;8916;47.086;15.920;2024-03-17T10:29:24;48.61;47.54;49.77;;
17594;Laerm;8916;47.086;15.920;2024-03-17T10:31:54;48.63;47.48;50.00;;
17594;Laerm;8916;47.086;15.920;2024-03-17T10:34:24;48.65;47.38;49.89;;
17594;Laerm;8916;47.086;15.920;2024-03-17T10:36:53;48.69;47.50;50.00;;
17594;Laerm;8916;47.086;15.920;2024-03-17T10:39:33;48.70;47.34;49.95;;
17594;Laerm;8916;47.086;15.920;2024-03-17T10:42:04;48.71;47.67;50.02;;
17594;Laerm;8916;47.086;15.920;2024-03-17T10:44:36;48.72;47.54;50.05;;
17594;Laerm;8916;47.086;15.920;2024-03-17T10:47:05;48.73;47.74;50.08;;
17594;Laerm;8916;47.086;15.920;2024-03-17T10:49:38;48.73;47.61;49.93;;
17594;Laerm;8916;47.086;15.920;2024-03-17T10:52:10;48.74;47.61;49.94;;
17594;Laerm;8916;47.086;15.920;2024-03-17T10:54:48;48.72;47.57;49.85;;
17594;Laerm;8916;47.086;15.920;2024-03-17T10:57:30;48.69;47.50;49.88;;
17594;Laerm;8916;47.086;15.920;2024-03-17T11:00:03;48.69;47.44;49.81;;
17594;Laerm;8916;47.086;15.920;2024-03-17T11:02:32;48.68;47.50;49.79;;
17594;Laerm;8916;47.086;15.920;2024-03-17T11:05:04;48.70;47.44;49.88;;
17594;Laerm;8916;47.086;15.920;2024-03-17T11:07:33;48.71;47.65;49.91;;
17594;Laerm;8916;47.086;15.920;2024-03-17T11:10:05;48.72;47.72;50.05;;
17594;Laerm;8916;47.086;15.920;2024-03-17T11:12:43;48.71;47.68;49.73;;
17594;Laerm;8916;47.086;15.920;2024-03-17T11:15:50;48.74;47.74;49.90;;
17594;Laerm;8916;47.086;15.920;2024-03-17T11:18:37;48.73;47.40;49.90;;
17594;Laerm;8916;47.086;15.920;2024-03-17T11:21:19;48.73;47.57;49.83;;
17594;Laerm;8916;47.086;15.920;2024-03-17T11:24:00;48.73;47.70;50.04;;
17594;Laerm;8916;47.086;15.920;2024-03-17T11:26:33;48.75;47.55;50.00;;
17594;Laerm;8916;47.086;15.920;2024-03-17T11:29:02;48.76;47.34;49.91;;
17594;Laerm;8916;47.086;15.920;2024-03-17T11:31:44;48.75;47.61;50.00;;
17594;Laerm;8916;47.086;15.920;2024-03-17T11:34:33;48.70;47.44;49.79;;
17594;Laerm;8916;47.086;15.920;2024-03-17T11:37:03;48.67;47.68;49.75;;
17594;Laerm;8916;47.086;15.920;2024-03-17T11:39:54;48.69;47.55;49.84;;
17594;Laerm;8916;47.086;15.920;2024-03-17T11:42:26;48.70;47.61;49.95;;
17594;Laerm;8916;47.086;15.920;2024-03-17T11:45:03;48.70;47.61;50.05;;
17594;Laerm;8916;47.086;15.920;2024-03-17T11:47:37;48.71;47.65;50.05;;
17594;Laerm;8916;47.086;15.920;2024-03-17T11:50:08;48.73;47.57;49.95;;
17594;Laerm;8916;47.086;15.920;2024-03-17T11:52:38;48.71;47.46;50.27;;
17594;Laerm;8916;47.086;15.920;2024-03-17T11:55:16;48.69;47.57;50.00;;
17594;Laerm;8916;47.086;15.920;2024-03-17T11:57:44;48.71;47.46;49.82;;
17594;Laerm;8916;47.086;15.920;2024-03-17T12:00:21;48.71;47.40;50.05;;
17594;Laerm;8916;47.086;15.920;2024-03-17T12:02:51;48.65;47.52;50.04;;
17594;Laerm;8916;47.086;15.920;2024-03-17T12:05:19;48.63;47.52;50.21;;
17594;Laerm;8916;47.086;15.920;2024-03-17T12:07:48;48.60;47.50;49.79;;
17594;Laerm;8916;47.086;15.920;2024-03-17T12:10:17;48.62;47.54;49.80;;
17594;Laerm;8916;47.086;15.920;2024-03-17T12:12:47;48.68;47.52;49.80;;
17594;Laerm;8916;47.086;15.920;2024-03-17T12:15:19;48.73;47.61;49.89;;
17594;Laerm;8916;47.086;15.920;2024-03-17T12:17:53;48.74;47.63;49.80;;
17594;Laerm;8916;47.086;15.920;2024-03-17T12:20:23;48.68;47.54;49.92;;
17594;Laerm;8916;47.086;15.920;2024-03-17T12:22:50;48.63;47.48;49.97;;
17594;Laerm;8916;47.086;15.920;2024-03-17T12:25:21;48.59;47.42;49.90;;
17594;Laerm;8916;47.086;15.920;2024-03-17T12:27:50;48.64;46.93;49.82;;
17594;Laerm;8916;47.086;15.920;2024-03-17T12:30:18;48.64;47.28;49.82;;
17594;Laerm;8916;47.086;15.920;2024-03-17T12:32:45;48.67;47.57;49.85;;
17594;Laerm;8916;47.086;15.920;2024-03-17T12:35:16;48.66;47.44;49.77;;
17594;Laerm;8916;47.086;15.920;2024-03-17T12:37:45;48.66;47.40;49.97;;
17594;Laerm;8916;47.086;15.920;2024-03-17T12:40:19;48.66;47.65;49.74;;
17594;Laerm;8916;47.086;15.920;2024-03-17T12:42:50;48.62;47.44;49.74;;
17594;Laerm;8916;47.086;15.920;2024-03-17T12:45:22;48.62;47.50;49.92;;
17594;Laerm;8916;47.086;15.920;2024-03-17T12:47:51;48.61;47.39;49.93;;
17594;Laerm;8916;47.086;15.920;2024-03-17T12:50:23;48.59;47.48;50.00;;
17594;Laerm;8916;47.086;15.920;2024-03-17T12:52:55;48.60;47.36;50.18;;
17594;Laerm;8916;47.086;15.920;2024-03-17T12:55:24;48.58;47.57;49.72;;
17594;Laerm;8916;47.086;15.920;2024-03-17T12:58:10;48.60;47.50;49.98;;
17594;Laerm;8916;47.086;15.920;2024-03-17T13:01:00;48.57;47.48;50.04;;
17594;Laerm;8916;47.086;15.920;2024-03-17T13:03:32;48.56;47.57;49.81;;
17594;Laerm;8916;47.086;15.920;2024-03-17T13:06:04;48.56;47.50;50.18;;
17594;Laerm;8916;47.086;15.920;2024-03-17T13:08:33;48.58;47.44;50.07;;
17594;Laerm;8916;47.086;15.920;2024-03-17T13:11:02;48.64;47.42;49.97;;
17594;Laerm;8916;47.086;15.920;2024-03-17T13:13:32;48.66;47.48;50.12;;
17594;Laerm;8916;47.086;15.920;2024-03-17T13:16:00;48.68;47.48;50.25;;
17594;Laerm;8916;47.086;15.920;2024-03-17T13:18:28;48.69;47.67;49.91;;
17594;Laerm;8916;47.086;15.920;2024-03-17T13:20:57;48.65;47.44;49.98;;
17594;Laerm;8916;47.086;15.920;2024-03-17T13:23:27;48.63;47.46;50.03;;
17594;Laerm;8916;47.086;15.920;2024-03-17T13:25:58;48.63;47.50;49.85;;
17594;Laerm;8916;47.086;15.920;2024-03-17T13:28:28;48.65;47.65;49.84;;
17594;Laerm;8916;47.086;15.920;2024-03-17T13:30:58;48.68;47.61;49.80;;
17594;Laerm;8916;47.086;15.920;2024-03-17T13:33:28;48.64;47.50;49.79;;
17594;Laerm;8916;47.086;15.920;2024-03-17T13:35:56;48.58;47.63;49.96;;
17594;Laerm;8916;47.086;15.920;2024-03-17T13:38:26;48.60;47.38;49.88;;
17594;Laerm;8916;47.086;15.920;2024-03-17T13:40:55;48.62;47.42;50.05;;
17594;Laerm;8916;47.086;15.920;2024-03-17T13:43:23;48.59;47.54;50.56;;
17594;Laerm;8916;47.086;15.920;2024-03-17T13:45:51;48.64;47.55;50.12;;
17594;Laerm;8916;47.086;15.920;2024-03-17T13:48:20;48.64;47.28;50.19;;
17594;Laerm;8916;47.086;15.920;2024-03-17T13:50:48;48.64;47.40;49.81;;
17594;Laerm;8916;47.086;15.920;2024-03-17T13:53:17;48.66;47.42;50.14;;
17594;Laerm;8916;47.086;15.920;2024-03-17T13:55:46;48.65;47.48;49.96;;
17594;Laerm;8916;47.086;15.920;2024-03-17T13:58:15;48.59;47.44;49.88;;
17594;Laerm;8916;47.086;15.920;2024-03-17T14:00:43;48.57;47.40;49.92;;